createdAt,value
2023-07-17T00:01:55.949Z,98481.72
2023-07-17T00:04:22.130Z,98476.31
2023-07-17T00:06:48.277Z,98468.19
2023-07-17T00:09:14.411Z,98471.75
2023-07-17T00:11:40.589Z,98470.09
2023-07-17T00:14:06.752Z,98470.91
2023-07-17T00:16:33.055Z,98476.59
2023-07-17T00:18:59.261Z,98470.38
2023-07-17T00:21:25.406Z,98466.81
2023-07-17T00:23:51.556Z,98468.47
2023-07-17T00:26:17.721Z,98461.41
2023-07-17T00:28:43.867Z,98464.13
2023-07-17T00:31:10.070Z,98464.97
2023-07-17T00:33:36.232Z,98468.72
2023-07-17T00:36:02.377Z,98457.91
2023-07-17T00:38:28.529Z,98460.59
2023-07-17T00:40:54.717Z,98453.56
2023-07-17T00:43:20.862Z,98455.19
2023-07-17T00:45:47.027Z,98462.50
2023-07-17T00:48:13.783Z,98461.69
2023-07-17T00:50:39.953Z,98467.91
2023-07-17T00:53:06.129Z,98472.50
2023-07-17T00:55:32.773Z,98477.06
2023-07-17T00:57:58.924Z,98497.06
2023-07-17T01:00:25.115Z,98504.34
2023-07-17T01:02:51.425Z,98505.97
2023-07-17T01:05:17.624Z,98514.09
2023-07-17T01:07:43.791Z,98511.66
2023-07-17T01:10:09.981Z,98520.56
2023-07-17T01:12:36.158Z,98519.75
2023-07-17T01:15:02.330Z,98529.72
2023-07-17T01:17:28.517Z,98532.44
2023-07-17T01:19:54.713Z,98528.91
2023-07-17T01:22:20.854Z,98530.00
2023-07-17T01:24:47.013Z,98519.19
2023-07-17T01:27:13.148Z,98523.78
2023-07-17T01:29:39.320Z,98512.13
2023-07-17T01:32:05.500Z,98515.69
2023-07-17T01:34:31.688Z,98520.25
2023-07-17T01:36:57.818Z,98526.50
2023-07-17T01:39:23.981Z,98524.84
2023-07-17T01:41:50.148Z,98526.72
2023-07-17T01:44:16.287Z,98527.53
2023-07-17T01:46:42.529Z,98538.63
2023-07-17T01:49:08.722Z,98535.91
2023-07-17T01:51:34.873Z,98534.25
2023-07-17T01:54:01.182Z,98531.56
2023-07-17T01:56:27.329Z,98540.47
2023-07-17T01:58:53.462Z,98549.66
2023-07-17T02:01:20.425Z,98548.84
2023-07-17T02:03:46.848Z,98555.06
2023-07-17T02:06:12.995Z,98558.81
2023-07-17T02:08:39.227Z,98569.63
2023-07-17T02:11:05.421Z,98566.94
2023-07-17T02:13:31.563Z,98566.94
2023-07-17T02:15:57.823Z,98560.72
2023-07-17T02:18:24.140Z,98568.00
2023-07-17T02:20:50.298Z,98562.59
2023-07-17T02:23:16.497Z,98575.31
2023-07-17T02:25:42.659Z,98569.91
2023-07-17T02:28:08.932Z,98559.31
2023-07-17T02:30:35.112Z,98574.50
2023-07-17T02:33:01.294Z,98573.88
2023-07-17T02:35:27.589Z,98582.00
2023-07-17T02:37:53.761Z,98576.59
2023-07-17T02:40:19.918Z,98581.19
2023-07-17T02:42:46.138Z,98576.81
2023-07-17T02:45:12.314Z,98577.63
2023-07-17T02:47:38.503Z,98578.72
2023-07-17T02:50:04.729Z,98580.34
2023-07-17T02:52:30.910Z,98571.41
2023-07-17T02:54:57.066Z,98576.00
2023-07-17T02:57:23.218Z,98575.19
2023-07-17T02:59:49.387Z,98571.66
2023-07-17T03:02:15.535Z,98567.31
2023-07-17T03:04:41.675Z,98561.94
2023-07-17T03:07:07.876Z,98561.94
2023-07-17T03:09:34.006Z,98569.22
2023-07-17T03:12:00.174Z,98570.03
2023-07-17T03:14:26.353Z,98565.69
2023-07-17T03:16:52.540Z,98566.50
2023-07-17T03:19:18.666Z,98571.09
2023-07-17T03:21:44.833Z,98559.47
2023-07-17T03:24:10.982Z,98560.53
2023-07-17T03:26:37.304Z,98557.03
2023-07-17T03:29:03.529Z,98551.63
2023-07-17T03:31:29.716Z,98534.59
2023-07-17T03:33:55.971Z,98543.75
2023-07-17T03:36:22.193Z,98551.84
2023-07-17T03:38:48.395Z,98550.22
2023-07-17T03:41:14.544Z,98558.06
2023-07-17T03:43:40.703Z,98567.03
2023-07-17T03:46:06.868Z,98570.75
2023-07-17T03:48:33.016Z,98576.97
2023-07-17T03:51:01.890Z,98576.16
2023-07-17T03:53:29.586Z,98576.16
2023-07-17T03:55:55.737Z,98579.09
2023-07-17T03:58:22.440Z,98579.09
2023-07-17T04:00:48.834Z,98579.09
2023-07-17T04:03:15.155Z,98571.00
2023-07-17T04:05:42.081Z,98582.88
2023-07-17T04:08:08.402Z,98583.69
2023-07-17T04:10:34.673Z,98582.06
2023-07-17T04:13:00.989Z,98588.53
2023-07-17T04:15:27.138Z,98585.81
2023-07-17T04:17:53.331Z,98586.66
2023-07-17T04:20:19.526Z,98585.81
2023-07-17T04:22:45.704Z,98585.00
2023-07-17T04:25:11.880Z,98587.97
2023-07-17T04:27:38.069Z,98590.69
2023-07-17T04:30:04.212Z,98595.00
2023-07-17T04:32:30.436Z,98593.38
2023-07-17T04:34:56.637Z,98599.59
2023-07-17T04:37:22.941Z,98606.91
2023-07-17T04:39:49.104Z,98607.94
2023-07-17T04:42:15.251Z,98619.00
2023-07-17T04:44:41.440Z,98619.00
2023-07-17T04:47:07.749Z,98617.13
2023-07-17T04:49:33.962Z,98627.13
2023-07-17T04:52:00.159Z,98622.53
2023-07-17T04:54:26.324Z,98621.72
2023-07-17T04:56:52.594Z,98627.13
2023-07-17T04:59:18.734Z,98627.94
2023-07-17T05:01:44.876Z,98628.16
2023-07-17T05:04:11.107Z,98631.94
2023-07-17T05:06:37.307Z,98636.25
2023-07-17T05:09:03.458Z,98630.06
2023-07-17T05:11:29.669Z,98632.97
2023-07-17T05:13:55.814Z,98623.00
2023-07-17T05:16:21.987Z,98632.97
2023-07-17T05:18:48.153Z,98638.38
2023-07-17T05:21:14.316Z,98641.09
2023-07-17T05:23:40.491Z,98654.59
2023-07-17T05:26:06.912Z,98644.06
2023-07-17T05:28:33.819Z,98645.91
2023-07-17T05:31:00.050Z,98650.50
2023-07-17T05:33:26.263Z,98648.63
2023-07-17T05:35:52.420Z,98652.41
2023-07-17T05:38:18.592Z,98657.78
2023-07-17T05:40:44.817Z,98665.09
2023-07-17T05:43:10.991Z,98671.53
2023-07-17T05:45:37.132Z,98675.06
2023-07-17T05:48:03.345Z,98669.91
2023-07-17T05:50:29.512Z,98671.78
2023-07-17T05:52:55.667Z,98669.91
2023-07-17T05:55:21.824Z,98665.56
2023-07-17T05:57:47.983Z,98664.75
2023-07-17T06:00:14.143Z,98663.69
2023-07-17T06:02:40.953Z,98667.44
2023-07-17T06:05:07.200Z,98672.03
2023-07-17T06:07:33.408Z,98679.91
2023-07-17T06:09:59.578Z,98674.97
2023-07-17T06:12:25.757Z,98674.72
2023-07-17T06:14:51.907Z,98678.50
2023-07-17T06:17:18.068Z,98678.50
2023-07-17T06:19:44.227Z,98686.59
2023-07-17T06:22:10.394Z,98681.22
2023-07-17T06:24:36.853Z,98690.34
2023-07-17T06:27:03.002Z,98704.69
2023-07-17T06:29:29.175Z,98695.75
2023-07-17T06:31:55.370Z,98705.53
2023-07-17T06:34:21.551Z,98698.72
2023-07-17T06:36:47.720Z,98709.25
2023-07-17T06:39:13.916Z,98704.13
2023-07-17T06:41:40.061Z,98708.44
2023-07-17T06:44:06.212Z,98706.81
2023-07-17T06:46:32.459Z,98704.13
2023-07-17T06:48:58.627Z,98702.47
2023-07-17T06:51:24.873Z,98714.94
2023-07-17T06:53:51.067Z,98709.25
2023-07-17T06:56:17.453Z,98711.38
2023-07-17T06:58:43.754Z,98714.94
2023-07-17T07:01:09.919Z,98707.06
2023-07-17T07:03:36.107Z,98710.56
2023-07-17T07:06:02.273Z,98715.97
2023-07-17T07:08:28.437Z,98717.63
2023-07-17T07:10:54.587Z,98718.66
2023-07-17T07:13:20.736Z,98715.97
2023-07-17T07:15:46.959Z,98715.16
2023-07-17T07:18:13.150Z,98715.16
2023-07-17T07:20:39.382Z,98719.75
2023-07-17T07:23:05.589Z,98713.50
2023-07-17T07:25:31.756Z,98720.56
2023-07-17T07:27:57.884Z,98715.97
2023-07-17T07:30:24.052Z,98720.56
2023-07-17T07:32:50.202Z,98720.78
2023-07-17T07:35:16.440Z,98727.00
2023-07-17T07:37:42.649Z,98727.00
2023-07-17T07:40:08.796Z,98727.84
2023-07-17T07:42:34.943Z,98724.31
2023-07-17T07:45:01.117Z,98725.16
2023-07-17T07:47:27.301Z,98730.56
2023-07-17T07:49:53.503Z,98730.56
2023-07-17T07:52:19.680Z,98736.19
2023-07-17T07:54:45.994Z,98737.81
2023-07-17T07:57:12.221Z,98732.41
2023-07-17T07:59:38.922Z,98737.00
2023-07-17T08:02:05.324Z,98737.81
2023-07-17T08:04:31.526Z,98724.31
2023-07-17T08:06:57.679Z,98739.69
2023-07-17T08:09:23.867Z,98741.34
2023-07-17T08:11:50.050Z,98735.94
2023-07-17T08:14:16.217Z,98743.22
2023-07-17T08:16:42.430Z,98736.19
2023-07-17T08:19:08.644Z,98729.97
2023-07-17T08:21:35.384Z,98734.28
2023-07-17T08:24:01.610Z,98739.69
2023-07-17T08:26:28.223Z,98730.78
2023-07-17T08:28:54.671Z,98738.06
2023-07-17T08:31:20.847Z,98730.78
2023-07-17T08:33:47.057Z,98729.16
2023-07-17T08:36:13.336Z,98735.09
2023-07-17T08:38:39.488Z,98737.00
2023-07-17T08:41:05.661Z,98739.97
2023-07-17T08:43:31.834Z,98746.16
2023-07-17T08:46:00.381Z,98747.00
2023-07-17T08:48:27.123Z,98745.34
2023-07-17T08:50:53.296Z,98737.25
2023-07-17T08:53:19.457Z,98749.69
2023-07-17T08:55:45.629Z,98754.28
2023-07-17T08:58:11.841Z,98753.47
2023-07-17T09:00:38.066Z,98747.22
2023-07-17T09:03:04.334Z,98747.22
2023-07-17T09:05:31.158Z,98741.81
2023-07-17T09:07:57.357Z,98749.09
2023-07-17T09:10:23.517Z,98747.22
2023-07-17T09:12:49.693Z,98741.81
2023-07-17T09:15:15.855Z,98752.63
2023-07-17T09:17:42.020Z,98760.72
2023-07-17T09:20:08.218Z,98753.47
2023-07-17T09:22:34.475Z,98755.09
2023-07-17T09:25:00.674Z,98759.69
2023-07-17T09:27:26.851Z,98759.69
2023-07-17T09:29:52.990Z,98760.50
2023-07-17T09:32:19.140Z,98766.72
2023-07-17T09:34:45.327Z,98753.19
2023-07-17T09:37:11.483Z,98764.00
2023-07-17T09:39:37.642Z,98756.72
2023-07-17T09:42:03.839Z,98756.72
2023-07-17T09:44:29.984Z,98754.84
2023-07-17T09:46:56.173Z,98760.25
2023-07-17T09:49:22.401Z,98760.25
2023-07-17T09:51:48.554Z,98761.06
2023-07-17T09:54:14.727Z,98763.78
2023-07-17T09:56:40.904Z,98767.28
2023-07-17T09:59:07.067Z,98769.19
2023-07-17T10:01:33.311Z,98764.59
2023-07-17T10:03:59.535Z,98767.28
2023-07-17T10:06:25.762Z,98772.69
2023-07-17T10:08:51.926Z,98764.59
2023-07-17T10:11:18.866Z,98765.41
2023-07-17T10:13:45.252Z,98773.50
2023-07-17T10:16:11.418Z,98766.25
2023-07-17T10:18:37.570Z,98775.41
2023-07-17T10:21:03.713Z,98777.06
2023-07-17T10:23:29.857Z,98769.19
2023-07-17T10:25:56.492Z,98768.94
2023-07-17T10:28:22.630Z,98781.38
2023-07-17T10:30:48.867Z,98777.88
2023-07-17T10:33:15.252Z,98784.09
2023-07-17T10:35:41.525Z,98777.06
2023-07-17T10:38:07.674Z,98779.50
2023-07-17T10:40:33.854Z,98773.28
2023-07-17T10:43:00.084Z,98775.97
2023-07-17T10:45:26.262Z,98779.75
2023-07-17T10:47:53.238Z,98777.06
2023-07-17T10:50:19.610Z,98778.69
2023-07-17T10:52:45.938Z,98782.47
2023-07-17T10:55:12.119Z,98779.75
2023-07-17T10:57:38.263Z,98791.13
2023-07-17T11:00:04.420Z,98791.13
2023-07-17T11:02:30.600Z,98796.50
2023-07-17T11:04:56.781Z,98798.19
2023-07-17T11:07:22.953Z,98789.25
2023-07-17T11:09:49.113Z,98794.66
2023-07-17T11:12:15.266Z,98780.31
2023-07-17T11:14:41.394Z,98793.81
2023-07-17T11:17:07.699Z,98794.66
2023-07-17T11:19:33.867Z,98783.00
2023-07-17T11:22:00.030Z,98788.19
2023-07-17T11:24:26.188Z,98791.97
2023-07-17T11:26:52.365Z,98783.84
2023-07-17T11:29:18.555Z,98795.47
2023-07-17T11:31:45.226Z,98784.66
2023-07-17T11:34:11.543Z,98783.84
2023-07-17T11:36:37.866Z,98782.19
2023-07-17T11:39:04.021Z,98778.19
2023-07-17T11:41:30.163Z,98776.56
2023-07-17T11:43:56.295Z,98791.97
2023-07-17T11:46:22.495Z,98784.66
2023-07-17T11:48:48.682Z,98786.56
2023-07-17T11:51:14.881Z,98786.56
2023-07-17T11:53:41.075Z,98786.28
2023-07-17T11:56:07.246Z,98786.56
2023-07-17T11:58:33.404Z,98786.56
2023-07-17T12:00:59.589Z,98791.69
2023-07-17T12:03:25.902Z,98776.56
2023-07-17T12:05:52.220Z,98780.88
2023-07-17T12:08:18.397Z,98780.88
2023-07-17T12:10:44.547Z,98776.56
2023-07-17T12:13:10.698Z,98779.25
2023-07-17T12:15:36.986Z,98777.38
2023-07-17T12:18:03.192Z,98771.97
2023-07-17T12:20:29.456Z,98776.56
2023-07-17T12:22:55.640Z,98775.50
2023-07-17T12:25:21.816Z,98766.56
2023-07-17T12:27:47.961Z,98770.09
2023-07-17T12:30:14.168Z,98773.84
2023-07-17T12:32:40.358Z,98771.97
2023-07-17T12:35:06.511Z,98773.03
2023-07-17T12:37:32.680Z,98777.38
2023-07-17T12:39:58.837Z,98774.69
2023-07-17T12:42:24.973Z,98781.97
2023-07-17T12:44:51.160Z,98776.56
2023-07-17T12:47:17.308Z,98774.69
2023-07-17T12:49:43.454Z,98776.56
2023-07-17T12:52:09.642Z,98771.97
2023-07-17T12:54:35.789Z,98766.56
2023-07-17T12:57:01.963Z,98769.28
2023-07-17T12:59:28.124Z,98761.16
2023-07-17T13:01:54.325Z,98764.69
2023-07-17T13:04:20.470Z,98760.09
2023-07-17T13:06:46.635Z,98761.97
2023-07-17T13:09:12.787Z,98766.34
2023-07-17T13:11:38.946Z,98765.50
2023-07-17T13:14:05.118Z,98759.06
2023-07-17T13:16:31.322Z,98763.63
2023-07-17T13:18:57.576Z,98757.41
2023-07-17T13:21:24.291Z,98755.53
2023-07-17T13:23:50.443Z,98760.94
2023-07-17T13:26:16.574Z,98763.63
2023-07-17T13:28:42.763Z,98760.94
2023-07-17T13:31:24.104Z,98763.63
2023-07-17T13:33:50.511Z,98762.56
2023-07-17T13:36:16.660Z,98758.81
2023-07-17T13:38:42.818Z,98754.47
2023-07-17T13:41:09.067Z,98762.56
2023-07-17T13:43:35.246Z,98751.75
2023-07-17T13:46:01.395Z,98750.72
2023-07-17T13:48:27.567Z,98750.72
2023-07-17T13:50:53.724Z,98754.22
2023-07-17T13:53:19.933Z,98749.88
2023-07-17T13:55:46.124Z,98748.81
2023-07-17T13:58:15.858Z,98750.72
2023-07-17T14:00:42.507Z,98750.72
2023-07-17T14:03:09.169Z,98748.81
2023-07-17T14:05:35.364Z,98763.97
2023-07-17T14:08:01.516Z,98760.22
2023-07-17T14:10:27.694Z,98751.28
2023-07-17T14:12:53.867Z,98751.28
2023-07-17T14:15:22.102Z,98742.94
2023-07-17T14:17:48.337Z,98744.81
2023-07-17T14:20:14.642Z,98751.84
2023-07-17T14:22:40.855Z,98742.13
2023-07-17T14:25:07.032Z,98740.22
2023-07-17T14:27:33.180Z,98734.84
2023-07-17T14:29:59.346Z,98729.44
2023-07-17T14:32:25.554Z,98741.84
2023-07-17T14:34:51.732Z,98731.06
2023-07-17T14:37:17.894Z,98731.91
2023-07-17T14:39:44.086Z,98735.41
2023-07-17T14:42:10.293Z,98738.13
2023-07-17T14:44:36.489Z,98737.31
2023-07-17T14:47:02.676Z,98740.00
2023-07-17T14:49:28.828Z,98735.41
2023-07-17T14:51:54.977Z,98739.75
2023-07-17T14:54:21.134Z,98737.03
2023-07-17T14:56:47.283Z,98735.19
2023-07-17T14:59:13.466Z,98735.19
2023-07-17T15:01:39.659Z,98732.47
2023-07-17T15:04:05.891Z,98734.34
2023-07-17T15:06:32.117Z,98740.59
2023-07-17T15:08:58.321Z,98734.09
2023-07-17T15:11:24.481Z,98735.72
2023-07-17T15:13:50.632Z,98733.03
2023-07-17T15:16:16.948Z,98730.31
2023-07-17T15:18:44.587Z,98729.53
2023-07-17T15:21:11.030Z,98732.22
2023-07-17T15:23:37.231Z,98732.22
2023-07-17T15:26:03.374Z,98731.19
2023-07-17T15:28:29.542Z,98740.09
2023-07-17T15:30:55.831Z,98739.28
2023-07-17T15:33:22.018Z,98741.97
2023-07-17T15:35:48.157Z,98740.91
2023-07-17T15:38:14.325Z,98744.69
2023-07-17T15:40:40.495Z,98744.41
2023-07-17T15:43:06.872Z,98751.72
2023-07-17T15:45:33.160Z,98747.38
2023-07-17T15:47:59.389Z,98754.41
2023-07-17T15:50:25.591Z,98755.50
2023-07-17T15:52:51.783Z,98761.72
2023-07-17T15:55:17.974Z,98777.09
2023-07-17T15:57:44.119Z,98787.66
2023-07-17T16:00:10.276Z,98827.13
2023-07-17T16:02:36.424Z,98857.09
2023-07-17T16:05:02.646Z,98867.91
2023-07-17T16:07:28.870Z,98858.72
2023-07-17T16:09:55.033Z,98876.81
2023-07-17T16:12:23.917Z,98884.91
2023-07-17T16:14:50.423Z,98883.28
2023-07-17T16:17:16.592Z,98897.63
2023-07-17T16:19:42.739Z,98895.72
2023-07-17T16:22:08.910Z,98891.41
2023-07-17T16:24:35.071Z,98884.34
2023-07-17T16:27:01.218Z,98877.06
2023-07-17T16:29:27.383Z,98876.22
2023-07-17T16:31:53.526Z,98878.94
2023-07-17T16:34:19.804Z,98879.78
2023-07-17T16:36:46.003Z,98880.81
2023-07-17T16:39:12.179Z,98884.34
2023-07-17T16:41:38.451Z,98887.88
2023-07-17T16:44:04.672Z,98887.03
2023-07-17T16:46:30.861Z,98894.31
2023-07-17T16:48:57.059Z,98904.09
2023-07-17T16:51:23.276Z,98901.38
2023-07-17T16:53:49.446Z,98915.72
2023-07-17T16:56:15.769Z,98914.06
2023-07-17T16:58:42.099Z,98922.16
2023-07-17T17:01:08.277Z,98936.50
2023-07-17T17:03:34.561Z,98946.47
2023-07-17T17:06:00.856Z,98970.78
2023-07-17T17:08:27.008Z,98974.56
2023-07-17T17:10:53.141Z,98993.47
2023-07-17T17:13:19.477Z,99003.22
2023-07-17T17:15:46.182Z,98994.56
2023-07-17T17:18:12.480Z,98989.16
2023-07-17T17:20:38.739Z,98962.13
2023-07-17T17:23:04.963Z,98916.44
2023-07-17T17:25:31.195Z,98916.44
2023-07-17T17:27:57.365Z,98911.03
2023-07-17T17:30:23.515Z,98923.72
2023-07-17T17:32:49.692Z,98914.53
2023-07-17T17:35:16.456Z,98919.94
2023-07-17T17:37:42.586Z,98924.31
2023-07-17T17:40:08.716Z,98923.47
2023-07-17T17:42:34.885Z,98922.66
2023-07-17T17:45:01.049Z,98923.47
2023-07-17T17:47:27.261Z,98927.22
2023-07-17T17:49:53.571Z,98922.66
2023-07-17T17:52:19.792Z,98917.25
2023-07-17T17:54:45.948Z,98917.25
2023-07-17T17:57:12.127Z,98909.13
2023-07-17T17:59:38.298Z,98903.16
2023-07-17T18:02:04.445Z,98904.81
2023-07-17T18:04:30.870Z,98910.22
2023-07-17T18:06:57.121Z,98902.09
2023-07-17T18:09:23.275Z,98903.97
2023-07-17T18:11:49.434Z,98915.63
2023-07-17T18:14:15.570Z,98925.56
2023-07-17T18:16:41.775Z,98930.97
2023-07-17T18:19:08.006Z,98933.94
2023-07-17T18:21:34.153Z,98924.75
2023-07-17T18:24:00.301Z,98932.03
2023-07-17T18:26:26.475Z,98923.94
2023-07-17T18:28:52.622Z,98925.00
2023-07-17T18:31:19.108Z,98929.34
2023-07-17T18:33:45.474Z,98928.53
2023-07-17T18:36:11.626Z,98931.22
2023-07-17T18:38:37.793Z,98934.75
2023-07-17T18:41:04.164Z,98936.63
2023-07-17T18:43:30.332Z,98939.34
2023-07-17T18:45:57.801Z,98943.66
2023-07-17T18:48:26.424Z,98939.34
2023-07-17T18:50:54.392Z,98933.13
2023-07-17T18:53:20.546Z,98940.38
2023-07-17T18:55:46.758Z,98940.38
2023-07-17T18:58:12.925Z,98946.84
2023-07-17T19:00:39.078Z,98943.09
2023-07-17T19:03:05.309Z,98951.44
2023-07-17T19:05:31.464Z,98956.84
2023-07-17T19:07:57.637Z,98957.66
2023-07-17T19:10:23.801Z,98957.66
2023-07-17T19:12:49.975Z,98961.44
2023-07-17T19:15:16.158Z,98956.84
2023-07-17T19:17:42.394Z,98956.03
2023-07-17T19:20:08.578Z,98953.31
2023-07-17T19:22:34.815Z,98960.59
2023-07-17T19:25:01.035Z,98948.97
2023-07-17T19:27:27.212Z,98959.78
2023-07-17T19:29:53.361Z,98957.88
2023-07-17T19:32:19.527Z,98957.06
2023-07-17T19:34:45.691Z,98966.84
2023-07-17T19:37:11.851Z,98969.75
2023-07-17T19:39:38.071Z,98971.66
2023-07-17T19:42:04.241Z,98969.75
2023-07-17T19:44:30.426Z,98973.50
2023-07-17T19:46:56.600Z,98974.34
2023-07-17T19:49:22.749Z,98987.84
2023-07-17T19:51:48.915Z,98984.31
2023-07-17T19:54:15.088Z,98991.59
2023-07-17T19:56:41.238Z,98991.59
2023-07-17T19:59:07.401Z,99002.41
2023-07-17T20:01:33.689Z,99002.41
2023-07-17T20:03:59.998Z,98998.66
2023-07-17T20:06:26.251Z,99009.69
2023-07-17T20:08:52.459Z,99004.28
2023-07-17T20:11:18.856Z,99007.00
2023-07-17T20:13:45.296Z,99006.19
2023-07-17T20:16:11.517Z,99008.88
2023-07-17T20:18:37.731Z,99018.03
2023-07-17T20:21:03.927Z,99011.56
2023-07-17T20:23:30.099Z,99019.69
2023-07-17T20:25:56.258Z,99016.97
2023-07-17T20:28:22.414Z,99016.38
2023-07-17T20:30:48.660Z,99014.75
2023-07-17T20:33:14.835Z,99011.00
2023-07-17T20:35:41.066Z,99009.91
2023-07-17T20:38:07.217Z,99014.75
2023-07-17T20:40:33.520Z,99021.78
2023-07-17T20:42:59.733Z,99019.09
2023-07-17T20:45:25.924Z,99028.00
2023-07-17T20:47:52.093Z,99028.25
2023-07-17T20:50:18.278Z,99021.19
2023-07-17T20:52:44.472Z,99025.56
2023-07-17T20:55:10.617Z,99020.16
2023-07-17T20:57:36.875Z,99032.59
2023-07-17T21:00:03.079Z,99040.09
2023-07-17T21:02:29.273Z,99033.06
2023-07-17T21:04:55.443Z,99034.72
2023-07-17T21:07:21.603Z,99042.00
2023-07-17T21:09:47.733Z,99041.19
2023-07-17T21:12:13.908Z,99045.72
2023-07-17T21:14:40.099Z,99049.28
2023-07-17T21:17:06.282Z,99048.44
2023-07-17T21:19:32.458Z,99040.34
2023-07-17T21:21:58.628Z,99047.63
2023-07-17T21:24:24.803Z,99046.00
2023-07-17T21:26:50.973Z,99047.63
2023-07-17T21:29:17.138Z,99052.22
2023-07-17T21:31:43.345Z,99057.59
2023-07-17T21:34:09.525Z,99061.38
2023-07-17T21:36:35.694Z,99049.72
2023-07-17T21:39:01.863Z,99049.72
2023-07-17T21:41:28.030Z,99047.03
2023-07-17T21:43:54.197Z,99049.97
2023-07-17T21:46:20.363Z,99055.13
2023-07-17T21:48:46.526Z,99061.59
2023-07-17T21:51:13.264Z,99063.50
2023-07-17T21:53:39.437Z,99063.50
2023-07-17T21:56:05.583Z,99058.31
2023-07-17T21:58:33.829Z,99064.53
2023-07-17T22:00:59.998Z,99064.53
2023-07-17T22:03:26.325Z,99066.41
2023-07-17T22:05:53.103Z,99061.00
2023-07-17T22:08:19.242Z,99058.31
2023-07-17T22:10:45.389Z,99060.19
2023-07-17T22:13:12.289Z,99061.00
2023-07-17T22:15:39.385Z,99051.50
2023-07-17T22:18:19.292Z,99062.28
2023-07-17T22:20:51.671Z,99065.00
2023-07-17T22:23:17.824Z,99076.63
2023-07-17T22:25:43.969Z,99069.31
2023-07-17T22:28:10.131Z,99064.19
2023-07-17T22:30:36.337Z,99066.06
2023-07-17T22:33:02.623Z,99058.78
2023-07-17T22:35:28.800Z,99066.06
2023-07-17T22:37:54.975Z,99061.47
2023-07-17T22:40:21.122Z,99067.91
2023-07-17T22:42:47.344Z,99064.41
2023-07-17T22:45:13.502Z,99066.28
2023-07-17T22:47:39.696Z,99069.81
2023-07-17T22:50:05.850Z,99066.28
2023-07-17T22:52:32.013Z,99078.16
2023-07-17T22:54:58.228Z,99076.28
2023-07-17T22:57:24.417Z,99072.75
2023-07-17T22:59:50.545Z,99082.72
2023-07-17T23:02:16.897Z,99084.59
2023-07-17T23:04:43.294Z,99081.09
2023-07-17T23:07:09.558Z,99086.69
2023-07-17T23:09:35.719Z,99088.38
2023-07-17T23:12:02.417Z,99085.66
2023-07-17T23:14:28.596Z,99081.28
2023-07-17T23:16:54.759Z,99077.78
2023-07-17T23:19:21.028Z,99077.78
2023-07-17T23:21:47.173Z,99074.25
2023-07-17T23:24:13.339Z,99068.88
2023-07-17T23:26:39.498Z,99069.91
2023-07-17T23:29:05.654Z,99069.91
2023-07-17T23:31:31.846Z,99072.59
2023-07-17T23:33:58.100Z,99077.19
2023-07-17T23:36:24.280Z,99076.38
2023-07-17T23:38:50.428Z,99076.38
2023-07-17T23:41:16.775Z,99081.78
2023-07-17T23:43:43.068Z,99072.03
2023-07-17T23:46:09.302Z,99076.59
2023-07-17T23:48:35.491Z,99078.25
2023-07-17T23:51:01.680Z,99070.38
2023-07-17T23:53:27.848Z,99073.06
2023-07-17T23:55:54.974Z,99069.56
2023-07-17T23:58:21.131Z,99068.75
